首页
METAR-TAF:

METAR-TAF

机场 :

羅曼·莫圖國際機場

科羅爾, 巴伯尔道布岛, 帛琉

纬度: 07-22N, 经度: 134-32E, 海拔: 54米

当前天气观测

该预报发布于58分钟前的09:50 UTC
风速5节,风向东转东北
温度 25°C
湿度 94%
气压 1009 hPa
能見度: 22.5公里
多云层高于1500英尺, 积雨云.
阴天层高于29000英尺

METAR: PTRO 240950Z 06005KT 14SM BKN015CB OVC290 25/24 A2981 RMK CB ALQDS

时间: 19:48 (10:48 UTC)

预报

该预报发布于5小时和21分钟前的05:27 UTC
预报有效从24日的 06点(UTC)到 25日的 06点(UTC)
风速12节,风向东转东北,有时为20节阵风
能見度: 10公里
散云层高于1500英尺
多云层高于11000英尺
附近有阵雨
短暂存在
从 24日的 06点(UTC)到 24日的 09点(UTC)
能見度: 6.4公里
多云层高于1500英尺
阴天层高于3000英尺
阵雨
从 24日的 1000点(UTC)
风速9节,风向东转东北
能見度: 10公里
散云层高于1600英尺
多云层高于12000英尺
附近有阵雨

TAF: PTRO 240527Z 2406/2506 06012G20KT P6SM VCSH SCT015 BKN110 TEMPO 2406/2409 4SM SHRA BKN015 OVC030 FM241000 07009KT P6SM VCSH SCT016 BKN120

超过4000个机场的气象观测和天气预报(METAR&TAF报告)。

可查询的气象台以黄色和红色小点在地图上表示。

将鼠标移到小点上方,可查看气象台名称。

然后点击查看天气观测和预报。

如需切换地图:点击带黑十字的绿色按钮放大地图;点击带横线的绿色按钮缩小地图;或者点击绿色箭头查看邻近地区的地图。


METAR-TAF: